createdAt,value
2022-08-03T00:01:37.234Z,3.28
2022-08-03T00:04:40.050Z,2.60
2022-08-03T00:07:42.644Z,3.15
2022-08-03T00:10:45.497Z,2.90
2022-08-03T00:13:48.015Z,2.95
2022-08-03T00:16:50.802Z,2.58
2022-08-03T00:19:53.378Z,2.80
2022-08-03T00:22:56.220Z,2.70
2022-08-03T00:25:58.724Z,2.85
2022-08-03T00:29:01.606Z,2.60
2022-08-03T00:32:04.348Z,2.97
2022-08-03T00:35:09.231Z,2.70
2022-08-03T00:38:14.476Z,2.70
2022-08-03T00:41:17.334Z,2.80
2022-08-03T00:44:19.810Z,2.87
2022-08-03T00:47:22.641Z,3.00
2022-08-03T00:50:28.020Z,3.28
2022-08-03T00:53:31.359Z,2.90
2022-08-03T00:56:33.876Z,3.05
2022-08-03T00:59:38.256Z,3.53
2022-08-03T01:02:41.390Z,3.17
2022-08-03T01:05:56.187Z,3.33
2022-08-03T01:09:04.600Z,3.33
2022-08-03T01:12:22.530Z,2.78
2022-08-03T01:15:28.093Z,3.62
2022-08-03T01:18:46.345Z,4.35
2022-08-03T01:22:09.654Z,3.55
2022-08-03T01:25:50.714Z,4.65
2022-08-03T01:28:58.201Z,3.10
2022-08-03T01:33:03.103Z,3.72
2022-08-03T01:35:41.703Z,3.25
2022-08-03T01:38:51.029Z,3.47
2022-08-03T01:41:59.311Z,3.78
2022-08-03T01:45:04.639Z,3.50
2022-08-03T01:48:09.486Z,3.87
2022-08-03T01:51:15.598Z,3.10
2022-08-03T01:54:20.749Z,3.30
2022-08-03T01:57:25.500Z,3.60
2022-08-03T02:00:29.258Z,3.35
2022-08-03T02:03:37.033Z,3.12
2022-08-03T02:07:00.158Z,3.40
2022-08-03T02:10:06.317Z,3.58
2022-08-03T02:13:10.748Z,3.53
2022-08-03T02:16:14.567Z,3.33
2022-08-03T02:19:19.519Z,3.45
2022-08-03T02:22:24.259Z,5.53
2022-08-03T02:25:28.264Z,3.65
2022-08-03T02:28:41.498Z,3.65
2022-08-03T02:31:46.428Z,4.80
2022-08-03T02:34:52.925Z,3.83
2022-08-03T02:38:02.323Z,3.85
2022-08-03T02:41:09.049Z,3.83
2022-08-03T02:44:14.349Z,3.72
2022-08-03T02:47:21.393Z,3.75
2022-08-03T02:50:26.431Z,3.95
2022-08-03T02:53:31.812Z,4.40
2022-08-03T02:56:35.637Z,4.45
2022-08-03T02:59:40.860Z,4.57
2022-08-03T03:02:44.585Z,4.45
2022-08-03T03:05:54.338Z,4.10
2022-08-03T03:09:01.009Z,4.30
2022-08-03T03:12:04.755Z,4.15
2022-08-03T03:15:07.769Z,4.80
2022-08-03T03:18:12.640Z,4.03
2022-08-03T03:21:19.569Z,4.62
2022-08-03T03:24:23.148Z,4.35
2022-08-03T03:27:26.063Z,5.47
2022-08-03T03:30:31.030Z,4.87
2022-08-03T03:33:34.644Z,5.05
2022-08-03T03:36:37.472Z,4.53
2022-08-03T03:39:40.094Z,5.25
2022-08-03T03:42:45.943Z,4.85
2022-08-03T03:45:49.242Z,5.18
2022-08-03T03:48:52.416Z,5.00
2022-08-03T03:51:56.805Z,4.72
2022-08-03T03:55:01.257Z,5.82
2022-08-03T03:58:04.876Z,4.82
2022-08-03T04:01:08.786Z,5.07
2022-08-03T04:04:30.401Z,5.18
2022-08-03T04:08:03.919Z,5.80
2022-08-03T04:11:31.477Z,5.25
2022-08-03T04:14:38.026Z,5.55
2022-08-03T04:17:42.639Z,5.10
2022-08-03T04:20:48.868Z,5.47
2022-08-03T04:23:53.796Z,5.40
2022-08-03T04:26:57.870Z,5.57
2022-08-03T04:30:03.599Z,5.45
2022-08-03T04:33:08.309Z,5.93
2022-08-03T04:36:15.897Z,5.70
2022-08-03T04:39:27.761Z,5.07
2022-08-03T04:42:33.441Z,7.37
2022-08-03T04:45:36.722Z,5.50
2022-08-03T04:48:43.473Z,6.32
2022-08-03T04:51:48.978Z,5.72
2022-08-03T04:54:52.782Z,6.80
2022-08-03T04:57:55.815Z,6.05
2022-08-03T05:00:59.024Z,6.20
2022-08-03T05:04:01.645Z,6.37
2022-08-03T05:07:11.704Z,6.03
2022-08-03T05:10:16.770Z,5.97
2022-08-03T05:13:19.678Z,6.40
2022-08-03T05:16:22.295Z,6.07
2022-08-03T05:19:25.181Z,6.43
2022-08-03T05:22:27.761Z,6.43
2022-08-03T05:25:30.837Z,6.10
2022-08-03T05:28:33.545Z,6.25
2022-08-03T05:31:36.315Z,6.45
2022-08-03T05:34:39.591Z,6.20
2022-08-03T05:37:42.377Z,10.57
2022-08-03T05:41:22.065Z,6.80
2022-08-03T05:44:21.369Z,6.00
2022-08-03T05:47:24.048Z,6.78
2022-08-03T05:50:27.001Z,6.80
2022-08-03T05:53:33.886Z,7.03
2022-08-03T05:56:36.771Z,7.00
2022-08-03T05:59:39.322Z,6.40
2022-08-03T06:02:57.255Z,6.18
2022-08-03T06:06:00.789Z,5.85
2022-08-03T06:09:03.520Z,6.12
2022-08-03T06:12:06.827Z,5.50
2022-08-03T06:15:11.363Z,8.38
2022-08-03T06:18:14.567Z,5.85
2022-08-03T06:21:17.107Z,6.93
2022-08-03T06:24:19.982Z,5.72
2022-08-03T06:27:36.320Z,5.22
2022-08-03T06:30:41.483Z,5.15
2022-08-03T06:34:31.539Z,5.57
2022-08-03T06:37:06.779Z,6.32
2022-08-03T06:40:11.188Z,5.68
2022-08-03T06:43:16.763Z,7.15
2022-08-03T06:46:20.025Z,5.90
2022-08-03T06:49:22.959Z,6.97
2022-08-03T06:52:38.018Z,6.37
2022-08-03T06:55:42.364Z,5.95
2022-08-03T06:58:46.982Z,5.50
2022-08-03T07:01:49.934Z,5.65
2022-08-03T07:04:52.570Z,6.60
2022-08-03T07:07:57.519Z,5.43
2022-08-03T07:11:00.039Z,5.93
2022-08-03T07:14:03.027Z,5.82
2022-08-03T07:17:11.614Z,6.55
2022-08-03T07:20:17.401Z,5.95
2022-08-03T07:23:19.947Z,5.97
2022-08-03T07:26:22.730Z,6.62
2022-08-03T07:29:25.328Z,6.47
2022-08-03T07:32:31.470Z,7.05
2022-08-03T07:35:34.259Z,6.62
2022-08-03T07:38:37.185Z,7.70
2022-08-03T07:41:39.689Z,6.37
2022-08-03T07:44:44.782Z,6.50
2022-08-03T07:47:53.397Z,7.25
2022-08-03T07:50:56.977Z,5.80
2022-08-03T07:54:00.939Z,6.80
2022-08-03T07:57:04.116Z,6.55
2022-08-03T08:00:14.013Z,8.88
2022-08-03T08:03:17.528Z,7.00
2022-08-03T08:06:20.560Z,6.87
2022-08-03T08:09:23.573Z,6.72
2022-08-03T08:12:26.129Z,6.85
2022-08-03T08:15:29.006Z,6.00
2022-08-03T08:18:32.531Z,6.50
2022-08-03T08:21:59.826Z,6.68
2022-08-03T08:25:05.465Z,7.55
2022-08-03T08:28:29.371Z,10.60
2022-08-03T08:31:31.182Z,5.82
2022-08-03T08:34:33.993Z,6.40
2022-08-03T08:37:36.772Z,8.13
2022-08-03T08:40:40.586Z,6.90
2022-08-03T08:43:43.567Z,6.70
2022-08-03T08:46:48.069Z,6.65
2022-08-03T08:50:09.204Z,9.18
2022-08-03T08:53:17.505Z,6.45
2022-08-03T08:56:25.921Z,7.10
2022-08-03T09:02:52.133Z,6.10
2022-08-03T09:05:56.428Z,6.53
2022-08-03T09:08:59.154Z,6.25
2022-08-03T09:12:27.196Z,6.45
2022-08-03T09:15:29.251Z,6.55
2022-08-03T09:18:32.765Z,6.47
2022-08-03T09:21:35.580Z,6.00
2022-08-03T09:25:14.986Z,6.45
2022-08-03T09:28:56.266Z,6.30
2022-08-03T09:31:46.311Z,6.05
2022-08-03T09:34:51.304Z,5.65
2022-08-03T09:38:14.005Z,6.15
2022-08-03T09:41:19.849Z,6.12
2022-08-03T09:44:34.928Z,5.68
2022-08-03T09:47:37.606Z,6.20
2022-08-03T09:51:13.411Z,5.53
2022-08-03T09:57:30.829Z,6.43
2022-08-03T10:00:57.048Z,5.82
2022-08-03T10:04:02.949Z,5.12
2022-08-03T10:07:09.582Z,5.85
2022-08-03T10:10:30.281Z,5.35
2022-08-03T10:13:36.255Z,6.53
2022-08-03T10:16:40.371Z,5.93
2022-08-03T10:19:43.102Z,5.43
2022-08-03T10:22:47.248Z,5.05
2022-08-03T10:25:54.783Z,4.80
2022-08-03T10:29:00.820Z,5.03
2022-08-03T10:32:09.202Z,5.10
2022-08-03T10:35:20.166Z,7.03
2022-08-03T10:38:37.435Z,6.53
2022-08-03T10:41:46.236Z,5.30
2022-08-03T10:44:51.829Z,4.55
2022-08-03T10:47:56.353Z,4.62
2022-08-03T10:50:59.124Z,4.55
2022-08-03T10:54:02.159Z,6.37
2022-08-03T10:57:23.620Z,4.55
2022-08-03T11:00:50.225Z,4.55
2022-08-03T11:03:52.769Z,4.75
2022-08-03T11:07:16.319Z,4.60
2022-08-03T11:10:32.254Z,4.30
2022-08-03T11:13:35.156Z,4.25
2022-08-03T11:16:41.120Z,4.15
2022-08-03T11:19:57.618Z,3.92
2022-08-03T11:23:02.884Z,4.18
2022-08-03T11:26:24.027Z,3.67
2022-08-03T11:29:28.551Z,3.78
2022-08-03T11:32:37.529Z,4.15
2022-08-03T11:35:59.671Z,3.50
2022-08-03T11:39:16.852Z,4.12
2022-08-03T11:42:22.929Z,4.35
2022-08-03T11:45:26.248Z,3.87
2022-08-03T11:48:34.381Z,4.40
2022-08-03T11:51:38.762Z,4.03
2022-08-03T11:54:41.608Z,4.30
2022-08-03T11:59:17.704Z,3.60
2022-08-03T12:01:11.430Z,4.07
2022-08-03T12:04:16.282Z,4.53
2022-08-03T12:08:02.280Z,4.00
2022-08-03T12:10:50.317Z,3.72
2022-08-03T12:14:44.868Z,4.00
2022-08-03T12:17:15.911Z,4.10
2022-08-03T12:20:34.485Z,4.07
2022-08-03T12:23:38.742Z,4.10
2022-08-03T12:26:59.362Z,4.45
2022-08-03T12:30:03.924Z,3.92
2022-08-03T12:33:14.203Z,3.92
2022-08-03T12:36:17.241Z,3.90
2022-08-03T12:39:24.856Z,3.80
2022-08-03T12:42:36.000Z,4.07
2022-08-03T12:45:38.766Z,3.60
2022-08-03T12:49:06.061Z,3.80
2022-08-03T12:52:08.784Z,3.90
2022-08-03T12:55:20.412Z,3.90
2022-08-03T12:58:33.644Z,4.12
2022-08-03T13:01:37.517Z,4.05
2022-08-03T13:04:40.150Z,3.70
2022-08-03T13:07:46.018Z,3.50
2022-08-03T13:10:49.468Z,3.78
2022-08-03T13:13:54.164Z,3.92
2022-08-03T13:16:56.788Z,3.80
2022-08-03T13:20:00.226Z,3.78
2022-08-03T13:23:02.923Z,4.10
2022-08-03T13:26:05.692Z,4.12
2022-08-03T13:29:08.246Z,5.00
2022-08-03T13:32:11.367Z,3.62
2022-08-03T13:35:16.600Z,4.15
2022-08-03T13:38:19.599Z,3.60
2022-08-03T13:41:29.127Z,4.07
2022-08-03T13:44:36.980Z,4.30
2022-08-03T13:47:39.586Z,3.72
2022-08-03T13:50:43.159Z,4.12
2022-08-03T13:53:45.845Z,4.07
2022-08-03T13:56:52.804Z,3.85
2022-08-03T13:59:55.547Z,4.03
2022-08-03T14:03:06.528Z,5.07
2022-08-03T14:06:12.234Z,3.72
2022-08-03T14:09:17.544Z,4.00
2022-08-03T14:12:20.467Z,4.65
2022-08-03T14:15:23.474Z,4.53
2022-08-03T14:18:29.274Z,3.45
2022-08-03T14:21:36.309Z,3.97
2022-08-03T14:24:39.095Z,3.62
2022-08-03T14:27:41.679Z,3.28
2022-08-03T14:30:44.825Z,4.18
2022-08-03T14:33:47.453Z,4.00
2022-08-03T14:36:50.294Z,3.53
2022-08-03T14:40:00.745Z,4.10
2022-08-03T14:43:04.239Z,3.47
2022-08-03T14:46:06.981Z,3.20
2022-08-03T14:50:34.674Z,3.50
2022-08-03T14:52:32.745Z,3.10
2022-08-03T14:55:38.914Z,4.80
2022-08-03T14:58:53.658Z,3.17
2022-08-03T15:02:04.510Z,3.40
2022-08-03T15:05:10.781Z,3.40
2022-08-03T15:08:13.545Z,3.10
2022-08-03T15:11:16.076Z,3.25
2022-08-03T15:14:18.946Z,4.10
2022-08-03T15:17:24.857Z,3.67
2022-08-03T15:20:43.365Z,3.20
2022-08-03T15:23:47.314Z,3.33
2022-08-03T15:26:52.115Z,3.45
2022-08-03T15:30:06.700Z,4.37
2022-08-03T15:33:13.064Z,2.83
2022-08-03T15:36:16.091Z,3.55
2022-08-03T15:39:18.986Z,3.33
2022-08-03T15:42:21.615Z,3.22
2022-08-03T15:45:28.379Z,2.97
2022-08-03T15:48:38.110Z,3.10
2022-08-03T15:51:41.036Z,3.20
2022-08-03T15:54:43.630Z,3.55
2022-08-03T15:59:09.240Z,5.07
2022-08-03T16:01:09.143Z,3.50
2022-08-03T16:04:29.943Z,3.35
2022-08-03T16:08:02.880Z,3.37
2022-08-03T16:11:40.210Z,3.60
2022-08-03T16:14:51.835Z,3.30
2022-08-03T16:17:55.897Z,3.42
2022-08-03T16:20:58.756Z,3.53
2022-08-03T16:24:03.626Z,3.12
2022-08-03T16:27:36.684Z,2.60
2022-08-03T16:30:33.039Z,2.80
2022-08-03T16:33:36.153Z,2.67
2022-08-03T16:36:38.905Z,2.95
2022-08-03T16:39:41.738Z,3.10
2022-08-03T16:42:45.642Z,3.30
2022-08-03T16:45:48.677Z,3.00
2022-08-03T16:48:51.689Z,3.00
2022-08-03T16:51:54.602Z,3.97
2022-08-03T16:54:57.629Z,3.53
2022-08-03T16:58:02.293Z,3.15
2022-08-03T17:01:21.188Z,3.55
2022-08-03T17:04:27.471Z,3.90
2022-08-03T17:07:32.138Z,3.42
2022-08-03T17:10:38.399Z,4.00
2022-08-03T17:13:44.146Z,3.30
2022-08-03T17:19:59.652Z,3.92
2022-08-03T17:23:35.549Z,4.43
2022-08-03T17:26:43.371Z,3.50
2022-08-03T17:29:50.110Z,3.50
2022-08-03T17:32:57.686Z,3.30
2022-08-03T17:39:05.539Z,3.67
2022-08-03T17:42:30.829Z,3.30
2022-08-03T17:45:52.134Z,4.00
2022-08-03T17:48:57.143Z,3.80
2022-08-03T17:52:07.359Z,3.58
2022-08-03T17:55:56.043Z,4.62
2022-08-03T17:58:55.260Z,4.37
2022-08-03T18:06:11.246Z,4.35
2022-08-03T18:10:06.145Z,3.92
2022-08-03T18:12:34.408Z,4.03
2022-08-03T18:15:51.876Z,5.50
2022-08-03T18:18:59.902Z,3.70
2022-08-03T18:22:04.352Z,4.87
2022-08-03T18:25:08.922Z,4.65
2022-08-03T18:28:16.410Z,5.72
2022-08-03T18:32:00.252Z,4.80
2022-08-03T18:34:54.219Z,4.10
2022-08-03T18:37:58.773Z,5.55
2022-08-03T18:41:13.190Z,4.18
2022-08-03T18:44:53.027Z,4.80
2022-08-03T18:47:56.459Z,5.07
2022-08-03T18:51:12.204Z,5.10
2022-08-03T18:54:47.107Z,4.18
2022-08-03T18:59:02.275Z,4.20
2022-08-03T19:02:11.649Z,4.35
2022-08-03T19:05:18.465Z,4.47
2022-08-03T19:08:28.593Z,4.05
2022-08-03T19:12:13.927Z,5.43
2022-08-03T19:15:10.407Z,5.95
2022-08-03T19:18:21.136Z,4.82
2022-08-03T19:21:25.193Z,4.30
2022-08-03T19:24:31.161Z,4.90
2022-08-03T19:27:35.267Z,5.80
2022-08-03T19:30:40.121Z,4.82
2022-08-03T19:33:57.363Z,4.80
2022-08-03T19:37:00.971Z,8.35
2022-08-03T19:40:05.797Z,4.43
2022-08-03T19:43:33.028Z,5.05
2022-08-03T19:47:00.725Z,5.75
2022-08-03T19:50:13.855Z,5.10
2022-08-03T19:53:17.540Z,4.30
2022-08-03T19:56:24.127Z,5.55
2022-08-03T19:59:27.568Z,4.20
2022-08-03T20:02:32.189Z,5.20
2022-08-03T20:05:44.995Z,4.60
2022-08-03T20:08:55.425Z,5.32
2022-08-03T20:12:02.290Z,4.83
2022-08-03T20:15:06.328Z,4.78
2022-08-03T20:18:16.685Z,4.72
2022-08-03T20:21:24.574Z,5.00
2022-08-03T20:24:28.929Z,4.53
2022-08-03T20:31:01.767Z,4.95
2022-08-03T20:34:06.871Z,4.30
2022-08-03T20:37:12.065Z,5.37
2022-08-03T20:40:14.938Z,4.55
2022-08-03T20:43:19.939Z,4.43
2022-08-03T20:46:31.328Z,4.03
2022-08-03T20:53:02.873Z,4.43
2022-08-03T20:56:09.733Z,4.62
2022-08-03T20:59:15.224Z,4.03
2022-08-03T21:02:29.090Z,4.18
2022-08-03T21:05:48.364Z,4.50
2022-08-03T21:09:00.263Z,4.95
2022-08-03T21:12:07.948Z,5.32
2022-08-03T21:13:06.882Z,4.85
2022-08-03T21:13:07.508Z,5.62
2022-08-03T21:15:59.490Z,4.43
2022-08-03T21:18:44.445Z,4.50
2022-08-03T21:21:49.063Z,6.30
2022-08-03T21:24:56.185Z,4.18
2022-08-03T21:28:05.362Z,6.25
2022-08-03T21:31:09.305Z,4.65
2022-08-03T21:34:12.266Z,3.30
2022-08-03T21:37:15.240Z,4.03
2022-08-03T21:40:18.953Z,6.25
2022-08-03T21:43:21.555Z,4.07
2022-08-03T21:46:26.965Z,4.40
2022-08-03T21:50:05.704Z,4.22
2022-08-03T21:52:59.019Z,4.03
2022-08-03T21:56:08.739Z,6.57
2022-08-03T21:59:20.054Z,4.12
2022-08-03T22:02:31.356Z,4.93
2022-08-03T22:05:43.599Z,4.60
2022-08-03T22:08:51.761Z,5.37
2022-08-03T22:11:55.034Z,4.37
2022-08-03T22:15:01.937Z,4.47
2022-08-03T22:18:06.257Z,4.15
2022-08-03T22:21:15.588Z,4.47
2022-08-03T22:24:23.915Z,4.43
2022-08-03T22:27:31.630Z,5.03
2022-08-03T22:33:38.372Z,4.90
2022-08-03T22:36:41.711Z,4.40
2022-08-03T22:39:45.144Z,5.07
2022-08-03T22:42:52.363Z,4.57
2022-08-03T22:46:10.405Z,5.23
2022-08-03T22:49:16.401Z,5.03
2022-08-03T22:52:20.235Z,4.65
2022-08-03T22:55:25.133Z,5.78
2022-08-03T22:58:27.797Z,5.68
2022-08-03T23:01:37.181Z,3.85
2022-08-03T23:04:41.161Z,5.72
2022-08-03T23:07:44.972Z,4.50
2022-08-03T23:10:50.123Z,3.40
2022-08-03T23:13:54.411Z,3.33
2022-08-03T23:17:02.795Z,4.03
2022-08-03T23:20:08.277Z,3.80
2022-08-03T23:23:11.127Z,5.18
2022-08-03T23:26:14.880Z,3.85
2022-08-03T23:29:19.356Z,4.07
2022-08-03T23:32:25.727Z,5.35
2022-08-03T23:36:28.528Z,4.22
2022-08-03T23:39:12.432Z,4.43
2022-08-03T23:42:17.393Z,4.18
2022-08-03T23:45:20.629Z,3.80
2022-08-03T23:48:23.735Z,4.15
2022-08-03T23:51:57.454Z,4.07
2022-08-03T23:55:04.322Z,4.15
2022-08-03T23:58:45.643Z,3.90
